createdAt,value
2023-05-17T00:00:54.712Z,38.73
2023-05-17T00:01:54.759Z,38.72
2023-05-17T00:02:54.837Z,38.75
2023-05-17T00:03:54.901Z,38.76
2023-05-17T00:04:55.040Z,38.74
2023-05-17T00:05:55.017Z,38.75
2023-05-17T00:06:54.969Z,38.77
2023-05-17T00:07:55.056Z,38.76
2023-05-17T00:08:55.023Z,38.74
2023-05-17T00:09:55.093Z,38.77
2023-05-17T00:10:55.123Z,38.73
2023-05-17T00:11:55.072Z,38.77
2023-05-17T00:12:55.153Z,38.75
2023-05-17T00:13:55.116Z,38.74
2023-05-17T00:14:55.221Z,38.74
2023-05-17T00:15:55.304Z,38.74
2023-05-17T00:16:55.381Z,38.73
2023-05-17T00:17:55.497Z,38.71
2023-05-17T00:18:55.669Z,38.72
2023-05-17T00:19:55.631Z,38.69
2023-05-17T00:20:55.693Z,38.71
2023-05-17T00:21:55.769Z,38.75
2023-05-17T00:22:55.855Z,38.72
2023-05-17T00:23:55.948Z,38.71
2023-05-17T00:24:56.019Z,38.73
2023-05-17T00:25:56.084Z,38.72
2023-05-17T00:26:56.179Z,38.72
2023-05-17T00:27:56.143Z,38.70
2023-05-17T00:28:56.179Z,38.73
2023-05-17T00:29:56.193Z,38.75
2023-05-17T00:30:56.236Z,38.73
2023-05-17T00:31:56.405Z,38.78
2023-05-17T00:32:56.400Z,38.73
2023-05-17T00:33:56.343Z,38.76
2023-05-17T00:34:56.406Z,38.77
2023-05-17T00:35:56.340Z,38.77
2023-05-17T00:36:56.403Z,38.75
2023-05-17T00:37:56.395Z,38.73
2023-05-17T00:38:56.411Z,38.70
2023-05-17T00:39:56.456Z,38.68
2023-05-17T00:40:56.468Z,38.77
2023-05-17T00:41:56.660Z,38.76
2023-05-17T00:42:56.669Z,38.72
2023-05-17T00:43:56.670Z,38.73
2023-05-17T00:44:56.739Z,38.72
2023-05-17T00:45:56.809Z,38.78
2023-05-17T00:46:56.912Z,38.68
2023-05-17T00:47:57.156Z,38.71
2023-05-17T00:48:57.053Z,38.69
2023-05-17T00:49:57.160Z,38.70
2023-05-17T00:50:57.216Z,38.65
2023-05-17T00:51:57.298Z,38.64
2023-05-17T00:52:57.405Z,38.68
2023-05-17T00:53:57.487Z,38.72
2023-05-17T00:54:57.565Z,38.69
2023-05-17T00:55:57.633Z,38.67
2023-05-17T00:56:57.717Z,38.68
2023-05-17T00:57:57.822Z,38.67
2023-05-17T00:58:58.015Z,38.64
2023-05-17T00:59:57.969Z,38.64
2023-05-17T01:00:58.065Z,38.58
2023-05-17T01:01:58.132Z,38.65
2023-05-17T01:02:58.338Z,38.66
2023-05-17T01:03:58.377Z,38.72
2023-05-17T01:04:58.401Z,38.65
2023-05-17T01:05:58.455Z,38.66
2023-05-17T01:06:58.541Z,38.66
2023-05-17T01:07:58.623Z,38.71
2023-05-17T01:08:58.727Z,38.62
2023-05-17T01:09:58.851Z,38.68
2023-05-17T01:10:58.855Z,38.67
2023-05-17T01:11:58.931Z,38.69
2023-05-17T01:12:59.012Z,38.68
2023-05-17T01:13:59.094Z,38.65
2023-05-17T01:14:59.377Z,38.67
2023-05-17T01:15:59.254Z,38.69
2023-05-17T01:16:59.355Z,38.62
2023-05-17T01:17:59.553Z,38.66
2023-05-17T01:18:59.551Z,38.71
2023-05-17T01:19:59.696Z,38.72
2023-05-17T01:20:59.668Z,38.66
2023-05-17T01:21:59.753Z,38.63
2023-05-17T01:22:59.837Z,38.66
2023-05-17T01:23:59.942Z,38.69
2023-05-17T01:25:00.018Z,38.63
2023-05-17T01:26:00.104Z,38.64
2023-05-17T01:27:00.194Z,38.63
2023-05-17T01:28:00.281Z,38.63
2023-05-17T01:29:00.359Z,38.68
2023-05-17T01:30:00.555Z,38.65
2023-05-17T01:31:00.662Z,38.59
2023-05-17T01:32:00.705Z,38.65
2023-05-17T01:33:00.781Z,38.67
2023-05-17T01:34:00.906Z,38.64
2023-05-17T01:35:00.873Z,38.58
2023-05-17T01:36:00.953Z,38.59
2023-05-17T01:37:01.064Z,38.67
2023-05-17T01:38:01.167Z,38.67
2023-05-17T01:39:01.230Z,38.66
2023-05-17T01:40:01.308Z,38.64
2023-05-17T01:41:01.392Z,38.57
2023-05-17T01:42:01.468Z,38.53
2023-05-17T01:43:01.565Z,38.60
2023-05-17T01:44:01.661Z,38.61
2023-05-17T01:45:01.751Z,38.62
2023-05-17T01:46:01.826Z,38.58
2023-05-17T01:47:01.987Z,38.69
2023-05-17T01:48:02.084Z,38.69
2023-05-17T01:49:02.107Z,38.67
2023-05-17T01:50:02.213Z,38.61
2023-05-17T01:51:02.254Z,38.61
2023-05-17T01:52:02.328Z,38.65
2023-05-17T01:53:02.427Z,38.58
2023-05-17T01:54:02.515Z,38.57
2023-05-17T01:55:02.592Z,38.62
2023-05-17T01:56:02.692Z,38.62
2023-05-17T01:57:02.766Z,38.62
2023-05-17T01:58:02.860Z,38.64
2023-05-17T01:59:03.008Z,38.61
2023-05-17T02:00:03.089Z,38.60
2023-05-17T02:01:03.143Z,38.57
2023-05-17T02:02:03.224Z,38.59
2023-05-17T02:03:03.505Z,38.66
2023-05-17T02:04:03.614Z,38.65
2023-05-17T02:05:03.532Z,38.66
2023-05-17T02:06:03.597Z,38.64
2023-05-17T02:07:03.696Z,38.64
2023-05-17T02:08:03.786Z,38.64
2023-05-17T02:09:03.882Z,38.62
2023-05-17T02:10:03.984Z,38.60
2023-05-17T02:11:04.048Z,38.60
2023-05-17T02:12:04.140Z,38.56
2023-05-17T02:13:04.218Z,38.56
2023-05-17T02:14:04.304Z,38.57
2023-05-17T02:15:04.391Z,38.58
2023-05-17T02:16:04.485Z,38.64
2023-05-17T02:17:04.565Z,38.63
2023-05-17T02:18:04.744Z,38.61
2023-05-17T02:19:04.893Z,38.60
2023-05-17T02:20:04.840Z,38.60
2023-05-17T02:21:04.912Z,38.56
2023-05-17T02:22:04.999Z,38.58
2023-05-17T02:23:05.092Z,38.58
2023-05-17T02:24:05.176Z,38.55
2023-05-17T02:25:05.264Z,38.63
2023-05-17T02:26:05.367Z,38.60
2023-05-17T02:27:05.438Z,38.52
2023-05-17T02:28:05.551Z,38.57
2023-05-17T02:29:05.609Z,38.56
2023-05-17T02:30:05.688Z,38.58
2023-05-17T02:31:05.786Z,38.51
2023-05-17T02:32:05.851Z,38.53
2023-05-17T02:33:06.046Z,38.53
2023-05-17T02:34:06.045Z,38.56
2023-05-17T02:35:06.175Z,38.57
2023-05-17T02:36:06.200Z,38.53
2023-05-17T02:37:06.314Z,38.56
2023-05-17T02:38:06.387Z,38.55
2023-05-17T02:39:06.474Z,38.57
2023-05-17T02:40:06.557Z,38.58
2023-05-17T02:41:06.685Z,38.56
2023-05-17T02:42:06.750Z,38.60
2023-05-17T02:43:06.859Z,38.57
2023-05-17T02:44:06.927Z,38.57
2023-05-17T02:45:07.030Z,38.56
2023-05-17T02:46:07.129Z,38.59
2023-05-17T02:47:07.215Z,38.63
2023-05-17T02:48:07.354Z,38.56
2023-05-17T02:49:07.328Z,38.57
2023-05-17T02:50:07.343Z,38.64
2023-05-17T02:51:08.256Z,38.52
2023-05-17T02:52:07.390Z,38.54
2023-05-17T02:53:07.433Z,38.51
2023-05-17T02:54:07.458Z,38.52
2023-05-17T02:55:07.493Z,38.51
2023-05-17T02:56:07.511Z,38.55
2023-05-17T02:57:07.582Z,38.52
2023-05-17T02:58:07.665Z,38.48
2023-05-17T02:59:07.762Z,38.50
2023-05-17T03:00:07.837Z,38.52
2023-05-17T03:01:07.941Z,38.50
2023-05-17T03:02:08.043Z,38.50
2023-05-17T03:03:08.201Z,38.44
2023-05-17T03:04:08.142Z,38.47
2023-05-17T03:05:08.105Z,38.47
2023-05-17T03:06:08.139Z,38.53
2023-05-17T03:07:08.231Z,38.48
2023-05-17T03:08:08.191Z,38.50
2023-05-17T03:09:08.224Z,38.49
2023-05-17T03:10:08.259Z,38.48
2023-05-17T03:11:08.304Z,38.53
2023-05-17T03:12:08.400Z,38.56
2023-05-17T03:13:08.492Z,38.54
2023-05-17T03:14:08.571Z,38.54
2023-05-17T03:15:08.684Z,38.51
2023-05-17T03:16:08.759Z,38.54
2023-05-17T03:17:08.859Z,38.55
2023-05-17T03:18:08.854Z,38.43
2023-05-17T03:19:09.037Z,38.48
2023-05-17T03:20:08.912Z,38.45
2023-05-17T03:21:08.917Z,38.49
2023-05-17T03:22:08.933Z,38.47
2023-05-17T03:23:09.035Z,38.34
2023-05-17T03:24:08.980Z,38.15
2023-05-17T03:25:09.071Z,38.33
2023-05-17T03:26:09.216Z,38.39
2023-05-17T03:27:09.286Z,38.43
2023-05-17T03:28:09.342Z,38.44
2023-05-17T03:29:09.431Z,38.44
2023-05-17T03:30:09.521Z,38.49
2023-05-17T03:31:09.659Z,38.49
2023-05-17T03:32:09.709Z,38.47
2023-05-17T03:33:09.920Z,38.47
2023-05-17T03:34:09.972Z,38.47
2023-05-17T03:35:10.008Z,38.49
2023-05-17T03:36:10.098Z,38.49
2023-05-17T03:37:10.191Z,38.53
2023-05-17T03:38:10.288Z,38.45
2023-05-17T03:39:10.400Z,38.41
2023-05-17T03:40:10.477Z,38.42
2023-05-17T03:41:10.711Z,38.41
2023-05-17T03:42:10.674Z,38.48
2023-05-17T03:43:10.769Z,38.48
2023-05-17T03:44:10.949Z,38.48
2023-05-17T03:45:10.938Z,38.45
2023-05-17T03:46:11.045Z,38.49
2023-05-17T03:47:11.148Z,38.41
2023-05-17T03:48:11.267Z,38.48
2023-05-17T03:49:11.415Z,38.34
2023-05-17T03:50:11.404Z,38.33
2023-05-17T03:51:11.490Z,38.32
2023-05-17T03:52:11.519Z,38.37
2023-05-17T03:53:11.574Z,38.48
2023-05-17T03:54:11.570Z,38.43
2023-05-17T03:55:11.644Z,38.39
2023-05-17T03:56:11.641Z,38.43
2023-05-17T03:57:11.630Z,38.38
2023-05-17T03:58:11.656Z,38.36
2023-05-17T03:59:11.680Z,38.39
2023-05-17T04:00:11.813Z,38.43
2023-05-17T04:01:11.852Z,38.41
2023-05-17T04:02:11.971Z,38.31
2023-05-17T04:03:12.027Z,38.28
2023-05-17T04:04:12.172Z,38.16
2023-05-17T04:05:12.226Z,38.06
2023-05-17T04:06:12.318Z,38.11
2023-05-17T04:07:12.395Z,38.10
2023-05-17T04:08:12.480Z,38.16
2023-05-17T04:09:12.584Z,38.27
2023-05-17T04:10:12.653Z,38.35
2023-05-17T04:11:12.829Z,38.27
2023-05-17T04:12:12.841Z,38.33
2023-05-17T04:13:12.939Z,38.35
2023-05-17T04:14:13.014Z,38.38
2023-05-17T04:15:13.117Z,38.34
2023-05-17T04:16:13.176Z,38.32
2023-05-17T04:17:15.549Z,38.28
2023-05-17T04:18:13.376Z,38.35
2023-05-17T04:19:13.349Z,38.37
2023-05-17T04:20:13.321Z,38.37
2023-05-17T04:21:13.359Z,38.38
2023-05-17T04:22:13.385Z,38.36
2023-05-17T04:23:13.397Z,38.23
2023-05-17T04:24:13.412Z,38.27
2023-05-17T04:25:13.462Z,38.25
2023-05-17T04:26:13.466Z,38.28
2023-05-17T04:27:13.627Z,38.28
2023-05-17T04:28:13.501Z,38.13
2023-05-17T04:29:13.533Z,38.17
2023-05-17T04:30:13.557Z,38.15
2023-05-17T04:31:13.572Z,38.24
2023-05-17T04:32:13.606Z,38.32
2023-05-17T04:33:14.433Z,38.31
2023-05-17T04:34:13.672Z,38.23
2023-05-17T04:35:13.689Z,38.33
2023-05-17T04:36:13.701Z,38.36
2023-05-17T04:37:13.722Z,38.34
2023-05-17T04:38:13.767Z,38.21
2023-05-17T04:39:13.784Z,38.16
2023-05-17T04:40:13.797Z,38.15
2023-05-17T04:41:13.886Z,38.12
2023-05-17T04:42:13.865Z,38.10
2023-05-17T04:43:13.944Z,38.21
2023-05-17T04:44:13.905Z,38.24
2023-05-17T04:45:15.531Z,38.26
2023-05-17T04:46:13.942Z,38.26
2023-05-17T04:47:13.983Z,38.28
2023-05-17T04:48:14.282Z,38.27
2023-05-17T04:49:14.181Z,38.48
2023-05-17T04:50:14.306Z,38.33
2023-05-17T04:51:14.388Z,38.42
2023-05-17T04:52:14.468Z,38.34
2023-05-17T04:53:14.538Z,38.38
2023-05-17T04:54:14.666Z,38.36
2023-05-17T04:55:14.719Z,38.31
2023-05-17T04:56:14.827Z,38.40
2023-05-17T04:57:14.921Z,38.38
2023-05-17T04:58:15.033Z,38.38
2023-05-17T04:59:15.103Z,38.39
2023-05-17T05:00:15.257Z,38.31
2023-05-17T05:01:15.316Z,38.39
2023-05-17T05:02:15.318Z,38.40
2023-05-17T05:03:15.487Z,38.35
2023-05-17T05:04:15.502Z,38.32
2023-05-17T05:05:15.391Z,38.30
2023-05-17T05:06:15.417Z,38.24
2023-05-17T05:07:15.453Z,38.29
2023-05-17T05:08:15.467Z,38.34
2023-05-17T05:09:15.509Z,38.28
2023-05-17T05:10:15.626Z,38.25
2023-05-17T05:11:15.746Z,38.31
2023-05-17T05:12:15.811Z,38.22
2023-05-17T05:13:15.920Z,38.22
2023-05-17T05:14:16.001Z,38.29
2023-05-17T05:15:16.216Z,38.22
2023-05-17T05:16:16.205Z,38.25
2023-05-17T05:17:16.279Z,38.30
2023-05-17T05:18:16.426Z,38.31
2023-05-17T05:19:16.580Z,38.30
2023-05-17T05:20:16.579Z,38.24
2023-05-17T05:21:16.660Z,38.20
2023-05-17T05:22:16.773Z,38.23
2023-05-17T05:23:16.855Z,38.22
2023-05-17T05:24:16.940Z,38.26
2023-05-17T05:25:17.053Z,38.27
2023-05-17T05:26:17.134Z,38.18
2023-05-17T05:27:17.157Z,38.24
2023-05-17T05:28:17.193Z,38.26
2023-05-17T05:29:17.224Z,38.21
2023-05-17T05:30:17.275Z,38.25
2023-05-17T05:31:17.400Z,38.22
2023-05-17T05:32:17.334Z,38.16
2023-05-17T05:33:17.415Z,38.17
2023-05-17T05:34:17.396Z,39.17
2023-05-17T05:35:17.440Z,39.35
2023-05-17T05:36:17.565Z,39.45
2023-05-17T05:37:18.735Z,39.56
2023-05-17T05:38:17.742Z,39.74
2023-05-17T05:39:17.821Z,39.96
2023-05-17T05:40:17.921Z,40.15
2023-05-17T05:41:18.002Z,40.20
2023-05-17T05:42:18.077Z,40.40
2023-05-17T05:43:18.159Z,40.54
2023-05-17T05:44:18.231Z,41.11
2023-05-17T05:45:18.311Z,41.11
2023-05-17T05:46:18.512Z,41.19
2023-05-17T05:47:18.563Z,41.34
2023-05-17T05:49:37.516Z,41.48
2023-05-17T05:50:37.526Z,41.74
2023-05-17T05:51:37.488Z,42.05
2023-05-17T05:52:37.500Z,41.81
2023-05-17T05:53:37.488Z,41.89
2023-05-17T05:54:37.455Z,41.92
2023-05-17T05:55:37.465Z,41.99
2023-05-17T05:56:37.463Z,42.13
2023-05-17T05:57:37.426Z,42.14
2023-05-17T05:58:37.478Z,42.20
2023-05-17T05:59:37.411Z,42.25
2023-05-17T06:00:37.399Z,42.26
2023-05-17T06:01:37.372Z,43.01
2023-05-17T06:02:37.448Z,42.40
2023-05-17T06:03:37.367Z,42.48
2023-05-17T06:04:45.369Z,42.59
2023-05-17T06:05:38.410Z,42.62
2023-05-17T06:06:38.424Z,42.72
2023-05-17T06:07:38.205Z,42.86
2023-05-17T06:08:37.272Z,42.93
2023-05-17T06:09:37.278Z,43.08
2023-05-17T06:10:37.283Z,43.19
2023-05-17T06:11:37.220Z,43.59
2023-05-17T06:12:37.241Z,43.64
2023-05-17T06:13:37.247Z,43.20
2023-05-17T06:14:37.248Z,43.21
2023-05-17T06:15:37.186Z,43.13
2023-05-17T06:16:37.210Z,43.09
2023-05-17T06:17:37.364Z,43.13
2023-05-17T06:18:37.252Z,43.14
2023-05-17T06:19:37.288Z,43.25
2023-05-17T06:20:37.220Z,43.30
2023-05-17T06:21:37.073Z,43.33
2023-05-17T06:22:37.031Z,43.33
2023-05-17T06:23:37.017Z,43.49
2023-05-17T06:24:37.012Z,43.46
2023-05-17T06:25:36.976Z,43.23
2023-05-17T06:26:37.025Z,43.34
2023-05-17T06:27:37.233Z,43.54
2023-05-17T06:28:36.922Z,43.49
2023-05-17T06:29:36.903Z,43.80
2023-05-17T06:30:36.874Z,44.00
2023-05-17T06:31:36.916Z,43.70
2023-05-17T06:32:36.899Z,43.98
2023-05-17T06:33:36.914Z,43.80
2023-05-17T06:34:36.908Z,43.89
2023-05-17T06:35:51.742Z,44.08
2023-05-17T06:36:38.728Z,44.19
2023-05-17T06:37:36.702Z,44.02
2023-05-17T06:38:36.669Z,44.19
2023-05-17T06:39:36.641Z,44.16
2023-05-17T06:40:37.029Z,44.21
2023-05-17T06:41:36.601Z,44.94
2023-05-17T06:42:36.592Z,44.81
2023-05-17T06:43:37.719Z,44.74
2023-05-17T06:44:36.533Z,43.93
2023-05-17T06:45:36.510Z,43.48
2023-05-17T06:46:36.494Z,42.54
2023-05-17T06:47:36.565Z,42.48
2023-05-17T06:48:36.473Z,42.76
2023-05-17T06:49:36.574Z,43.18
2023-05-17T06:50:36.471Z,43.18
2023-05-17T06:51:36.343Z,43.28
2023-05-17T06:52:36.335Z,43.03
2023-05-17T06:53:36.317Z,43.16
2023-05-17T06:54:36.259Z,43.38
2023-05-17T06:55:36.226Z,43.18
2023-05-17T06:56:36.192Z,42.97
2023-05-17T06:57:36.221Z,43.34
2023-05-17T06:58:36.179Z,43.43
2023-05-17T06:59:36.122Z,43.61
2023-05-17T07:00:36.090Z,43.54
2023-05-17T07:01:36.072Z,43.70
2023-05-17T07:02:36.124Z,43.56
2023-05-17T07:03:36.155Z,43.72
2023-05-17T07:04:35.999Z,43.58
2023-05-17T07:05:36.068Z,43.67
2023-05-17T07:06:36.035Z,43.78
2023-05-17T07:07:35.885Z,43.68
2023-05-17T07:08:35.866Z,43.61
2023-05-17T07:09:35.847Z,43.56
2023-05-17T07:10:35.808Z,43.65
2023-05-17T07:11:35.806Z,43.82
2023-05-17T07:12:36.233Z,43.69
2023-05-17T07:13:35.738Z,43.71
2023-05-17T07:14:35.669Z,43.85
2023-05-17T07:15:35.637Z,43.96
2023-05-17T07:16:35.631Z,43.95
2023-05-17T07:17:35.691Z,43.93
2023-05-17T07:18:35.721Z,43.87
2023-05-17T07:19:35.662Z,44.07
2023-05-17T07:20:35.479Z,44.09
2023-05-17T07:21:35.540Z,44.20
2023-05-17T07:22:35.593Z,44.06
2023-05-17T07:23:35.373Z,44.30
2023-05-17T07:24:35.326Z,44.30
2023-05-17T07:25:35.340Z,44.21
2023-05-17T07:26:35.324Z,44.19
2023-05-17T07:27:35.235Z,44.05
2023-05-17T07:28:35.177Z,44.07
2023-05-17T07:29:35.721Z,43.98
2023-05-17T07:30:35.108Z,44.21
2023-05-17T07:31:35.072Z,44.07
2023-05-17T07:32:35.119Z,44.22
2023-05-17T07:33:35.015Z,43.98
2023-05-17T07:34:35.009Z,43.80
2023-05-17T07:35:35.087Z,44.16
2023-05-17T07:36:34.939Z,44.53
2023-05-17T07:37:34.916Z,43.90
2023-05-17T07:38:35.014Z,43.43
2023-05-17T07:39:35.003Z,43.34
2023-05-17T07:40:34.885Z,43.24
2023-05-17T07:41:34.857Z,43.15
2023-05-17T07:42:34.825Z,43.25
2023-05-17T07:43:34.795Z,43.12
2023-05-17T07:44:34.826Z,42.84
2023-05-17T07:45:34.973Z,43.58
2023-05-17T07:46:34.811Z,43.67
2023-05-17T07:47:34.830Z,43.59
2023-05-17T07:48:34.787Z,43.44
2023-05-17T07:49:34.590Z,43.37
2023-05-17T07:50:34.557Z,43.28
2023-05-17T07:51:34.667Z,43.85
2023-05-17T07:52:34.497Z,43.75
2023-05-17T07:53:34.464Z,43.66
2023-05-17T07:54:34.526Z,43.37
2023-05-17T07:55:34.396Z,43.32
2023-05-17T07:56:34.378Z,43.80
2023-05-17T07:57:34.341Z,43.81
2023-05-17T07:58:34.312Z,43.75
2023-05-17T07:59:34.272Z,43.60
2023-05-17T08:00:34.256Z,43.25
2023-05-17T08:01:34.211Z,43.53
2023-05-17T08:02:34.255Z,43.93
2023-05-17T08:03:34.216Z,43.74
2023-05-17T08:04:34.141Z,43.85
2023-05-17T08:05:34.149Z,43.72
2023-05-17T08:06:34.106Z,43.30
2023-05-17T08:07:34.027Z,43.65
2023-05-17T08:08:33.994Z,43.84
2023-05-17T08:09:33.978Z,43.78
2023-05-17T08:10:33.951Z,43.62
2023-05-17T08:11:34.931Z,43.40
2023-05-17T08:12:33.885Z,43.41
2023-05-17T08:13:33.882Z,43.66
2023-05-17T08:14:33.817Z,43.75
2023-05-17T08:15:33.781Z,43.59
2023-05-17T08:16:33.734Z,43.12
2023-05-17T08:17:33.796Z,42.93
2023-05-17T08:18:33.849Z,43.55
2023-05-17T08:19:33.784Z,43.67
2023-05-17T08:20:33.604Z,43.58
2023-05-17T08:21:33.671Z,43.36
2023-05-17T08:22:33.564Z,43.12
2023-05-17T08:23:33.529Z,43.39
2023-05-17T08:24:33.477Z,43.48
2023-05-17T08:25:33.458Z,43.57
2023-05-17T08:26:33.442Z,43.44
2023-05-17T08:27:33.409Z,43.04
2023-05-17T08:28:33.401Z,43.10
2023-05-17T08:29:33.364Z,43.45
2023-05-17T08:30:33.314Z,43.72
2023-05-17T08:31:33.289Z,43.90
2023-05-17T08:32:33.366Z,43.10
2023-05-17T08:33:33.287Z,42.48
2023-05-17T08:34:33.176Z,36.83
2023-05-17T08:35:33.424Z,39.30
2023-05-17T08:36:33.126Z,36.30
2023-05-17T08:37:33.136Z,37.39
2023-05-17T08:38:33.791Z,36.06
2023-05-17T08:39:33.085Z,35.95
2023-05-17T08:40:33.281Z,34.31
2023-05-17T08:41:33.074Z,34.64
2023-05-17T08:42:33.060Z,35.40
2023-05-17T08:43:33.093Z,35.67
2023-05-17T08:44:33.054Z,36.04
2023-05-17T08:45:33.053Z,36.50
2023-05-17T08:46:33.066Z,36.58
2023-05-17T08:47:33.081Z,37.37
2023-05-17T08:48:33.107Z,37.49
2023-05-17T08:49:33.074Z,37.13
2023-05-17T08:50:33.063Z,37.08
2023-05-17T08:51:33.080Z,37.61
2023-05-17T08:52:33.141Z,37.66
2023-05-17T08:53:33.091Z,37.68
2023-05-17T08:54:33.087Z,38.01
2023-05-17T08:55:33.065Z,37.75
2023-05-17T08:56:33.056Z,38.12
2023-05-17T08:57:33.029Z,38.47
2023-05-17T08:58:41.110Z,38.50
2023-05-17T08:59:34.171Z,38.21
2023-05-17T09:00:32.990Z,38.41
2023-05-17T09:01:33.400Z,38.76
2023-05-17T09:02:33.093Z,39.03
2023-05-17T09:03:33.128Z,38.70
2023-05-17T09:04:32.974Z,38.59
2023-05-17T09:05:33.079Z,37.96
2023-05-17T09:06:32.899Z,37.92
2023-05-17T09:07:32.910Z,37.16
2023-05-17T09:08:32.887Z,37.60
2023-05-17T09:09:32.946Z,38.09
2023-05-17T09:10:32.998Z,37.96
2023-05-17T09:11:33.157Z,37.79
2023-05-17T09:12:33.088Z,37.88
2023-05-17T09:13:33.156Z,38.34
2023-05-17T09:14:33.200Z,38.21
2023-05-17T09:15:33.290Z,38.11
2023-05-17T09:16:33.295Z,38.34
2023-05-17T09:17:33.407Z,38.14
2023-05-17T09:18:33.603Z,38.40
2023-05-17T09:19:33.594Z,38.42
2023-05-17T09:20:33.545Z,38.34
2023-05-17T09:21:33.602Z,38.37
2023-05-17T09:22:33.688Z,38.38
2023-05-17T09:23:33.725Z,38.51
2023-05-17T09:24:33.758Z,38.74
2023-05-17T09:25:33.801Z,38.48
2023-05-17T09:26:33.851Z,38.52
2023-05-17T09:27:33.945Z,38.61
2023-05-17T09:28:34.004Z,38.74
2023-05-17T09:29:34.033Z,38.96
2023-05-17T09:30:34.145Z,38.56
2023-05-17T09:31:34.153Z,38.67
2023-05-17T09:32:34.244Z,38.67
2023-05-17T09:33:34.311Z,38.62
2023-05-17T09:34:34.291Z,38.98
2023-05-17T09:35:34.282Z,38.86
2023-05-17T09:36:34.286Z,38.85
2023-05-17T09:37:34.312Z,38.78
2023-05-17T09:38:34.261Z,38.82
2023-05-17T09:39:34.334Z,39.04
2023-05-17T09:40:34.274Z,39.21
2023-05-17T09:41:34.248Z,39.45
2023-05-17T09:42:34.217Z,40.40
2023-05-17T09:43:34.241Z,41.63
2023-05-17T09:44:34.269Z,42.63
2023-05-17T09:45:34.201Z,43.85
2023-05-17T09:46:34.287Z,43.10
2023-05-17T09:47:34.297Z,42.31
2023-05-17T09:48:34.424Z,42.15
2023-05-17T09:49:34.163Z,42.33
2023-05-17T09:50:34.288Z,42.68
2023-05-17T09:51:34.243Z,42.48
2023-05-17T09:52:34.293Z,42.25
2023-05-17T09:53:34.385Z,42.06
2023-05-17T09:54:34.371Z,41.78
2023-05-17T09:55:34.420Z,41.59
2023-05-17T09:56:34.453Z,42.22
2023-05-17T09:57:34.447Z,41.96
2023-05-17T09:58:34.455Z,41.06
2023-05-17T09:59:34.427Z,41.20
2023-05-17T10:00:34.421Z,40.98
2023-05-17T10:01:34.404Z,41.16
2023-05-17T10:02:34.413Z,40.99
2023-05-17T10:03:34.671Z,40.57
2023-05-17T10:04:34.476Z,40.02
2023-05-17T10:05:34.474Z,40.40
2023-05-17T10:06:46.086Z,40.62
2023-05-17T10:07:34.346Z,40.83
2023-05-17T10:08:34.344Z,40.59
2023-05-17T10:09:34.349Z,40.21
2023-05-17T10:10:34.314Z,39.77
2023-05-17T10:11:34.372Z,40.15
2023-05-17T10:12:34.374Z,39.68
2023-05-17T10:13:34.307Z,39.65
2023-05-17T10:14:34.392Z,39.28
2023-05-17T10:15:34.349Z,39.15
2023-05-17T10:16:34.415Z,39.04
2023-05-17T10:17:34.469Z,38.76
2023-05-17T10:18:34.752Z,38.80
2023-05-17T10:19:34.793Z,38.79
2023-05-17T10:20:34.755Z,38.78
2023-05-17T10:21:34.689Z,38.65
2023-05-17T10:22:34.704Z,38.66
2023-05-17T10:23:34.684Z,38.56
2023-05-17T10:24:34.668Z,38.38
2023-05-17T10:25:34.642Z,38.26
2023-05-17T10:26:34.646Z,38.12
2023-05-17T10:27:34.802Z,37.95
2023-05-17T10:28:34.727Z,37.72
2023-05-17T10:29:35.296Z,37.18
2023-05-17T10:30:34.619Z,37.76
2023-05-17T10:31:34.752Z,37.69
2023-05-17T10:32:34.650Z,37.57
2023-05-17T10:33:34.749Z,37.63
2023-05-17T10:34:34.698Z,37.55
2023-05-17T10:35:34.768Z,37.47
2023-05-17T10:36:34.917Z,37.68
2023-05-17T10:37:34.853Z,37.94
2023-05-17T10:38:42.085Z,37.98
2023-05-17T10:39:35.865Z,38.20
2023-05-17T10:40:34.857Z,38.25
2023-05-17T10:41:34.835Z,38.39
2023-05-17T10:42:34.843Z,38.56
2023-05-17T10:43:34.845Z,38.70
2023-05-17T10:44:34.829Z,38.85
2023-05-17T10:45:34.801Z,38.98
2023-05-17T10:46:34.803Z,39.09
2023-05-17T10:47:34.940Z,39.24
2023-05-17T10:48:34.902Z,39.29
2023-05-17T10:49:35.037Z,39.35
2023-05-17T10:50:34.983Z,39.48
2023-05-17T10:51:35.014Z,39.56
2023-05-17T10:52:35.097Z,39.55
2023-05-17T10:53:35.126Z,39.57
2023-05-17T10:54:35.159Z,39.67
2023-05-17T10:55:35.303Z,39.72
2023-05-17T10:56:35.229Z,39.75
2023-05-17T10:57:49.812Z,39.81
2023-05-17T10:58:36.289Z,39.89
2023-05-17T10:59:35.292Z,39.93
2023-05-17T11:00:35.711Z,40.00
2023-05-17T11:01:35.238Z,40.05
2023-05-17T11:02:35.285Z,40.06
2023-05-17T11:03:35.179Z,40.05
2023-05-17T11:04:35.317Z,40.06
2023-05-17T11:05:35.182Z,40.09
2023-05-17T11:06:35.184Z,40.03
2023-05-17T11:07:35.170Z,40.02
2023-05-17T11:08:35.311Z,40.01
2023-05-17T11:09:35.484Z,39.85
2023-05-17T11:10:35.387Z,39.84
2023-05-17T11:11:35.525Z,39.66
2023-05-17T11:12:37.224Z,39.61
2023-05-17T11:13:35.554Z,39.55
2023-05-17T11:14:35.296Z,39.71
2023-05-17T11:15:35.301Z,39.85
2023-05-17T11:16:35.279Z,39.98
2023-05-17T11:17:35.320Z,40.08
2023-05-17T11:18:38.467Z,40.37
2023-05-17T11:19:35.340Z,40.50
2023-05-17T11:20:36.023Z,40.36
2023-05-17T11:21:35.280Z,40.15
2023-05-17T11:22:35.193Z,40.04
2023-05-17T11:23:35.195Z,39.77
2023-05-17T11:24:35.165Z,39.59
2023-05-17T11:25:35.164Z,39.61
2023-05-17T11:26:35.134Z,39.60
2023-05-17T11:27:35.128Z,39.67
2023-05-17T11:28:35.125Z,39.66
2023-05-17T11:29:35.230Z,39.54
2023-05-17T11:30:35.079Z,39.65
2023-05-17T11:31:35.075Z,39.63
2023-05-17T11:32:35.059Z,39.53
2023-05-17T11:33:35.151Z,39.45
2023-05-17T11:34:35.113Z,39.49
2023-05-17T11:35:35.016Z,39.41
2023-05-17T11:36:34.979Z,39.36
2023-05-17T11:37:34.964Z,39.37
2023-05-17T11:38:34.998Z,39.41
2023-05-17T11:39:34.954Z,39.29
2023-05-17T11:40:34.921Z,39.37
2023-05-17T11:41:34.989Z,39.35
2023-05-17T11:42:35.022Z,39.34
2023-05-17T11:43:34.915Z,39.33
2023-05-17T11:44:34.936Z,39.29
2023-05-17T11:45:34.895Z,39.32
2023-05-17T11:46:34.896Z,39.31
2023-05-17T11:47:35.185Z,39.28
2023-05-17T11:48:35.169Z,39.23
2023-05-17T11:49:36.700Z,39.31
2023-05-17T11:50:35.038Z,39.24
2023-05-17T11:51:35.057Z,39.16
2023-05-17T11:52:35.173Z,39.15
2023-05-17T11:53:35.183Z,39.16
2023-05-17T11:54:35.157Z,39.18
2023-05-17T11:55:35.187Z,39.10
2023-05-17T11:56:42.698Z,38.97
2023-05-17T11:57:36.669Z,39.08
2023-05-17T11:58:35.454Z,39.06
2023-05-17T11:59:35.429Z,39.12
2023-05-17T12:00:35.535Z,39.10
2023-05-17T12:01:35.435Z,39.15
2023-05-17T12:02:35.518Z,39.10
2023-05-17T12:03:35.501Z,39.11
2023-05-17T12:04:35.596Z,39.09
2023-05-17T12:05:35.708Z,39.07
2023-05-17T12:06:35.670Z,39.03
2023-05-17T12:07:35.806Z,39.04
2023-05-17T12:08:35.696Z,39.05
2023-05-17T12:09:35.714Z,39.05
2023-05-17T12:10:35.929Z,39.04
2023-05-17T12:11:35.864Z,39.04
2023-05-17T12:12:35.754Z,39.02
2023-05-17T12:13:35.788Z,38.97
2023-05-17T12:14:35.930Z,38.90
2023-05-17T12:15:35.728Z,39.01
2023-05-17T12:16:35.709Z,38.91
2023-05-17T12:17:35.957Z,38.97
2023-05-17T12:18:36.511Z,38.99
2023-05-17T12:19:35.725Z,38.99
2023-05-17T12:20:35.683Z,38.98
2023-05-17T12:21:35.661Z,38.95
2023-05-17T12:22:35.770Z,38.94
2023-05-17T12:23:35.744Z,38.96
2023-05-17T12:24:35.879Z,38.96
2023-05-17T12:25:35.748Z,38.97
2023-05-17T12:26:36.325Z,38.98
2023-05-17T12:27:35.740Z,38.94
2023-05-17T12:28:35.756Z,38.99
2023-05-17T12:29:35.814Z,38.98
2023-05-17T12:30:35.719Z,38.95
2023-05-17T12:31:35.694Z,39.00
2023-05-17T12:32:35.740Z,39.04
2023-05-17T12:33:35.805Z,38.97
2023-05-17T12:34:35.708Z,38.94
2023-05-17T12:35:35.654Z,38.91
2023-05-17T12:36:35.651Z,38.90
2023-05-17T12:37:35.661Z,38.86
2023-05-17T12:38:35.655Z,38.88
2023-05-17T12:39:35.624Z,38.90
2023-05-17T12:40:35.663Z,38.97
2023-05-17T12:41:35.706Z,38.92
2023-05-17T12:42:35.728Z,38.96
2023-05-17T12:43:35.783Z,38.93
2023-05-17T12:44:35.801Z,38.98
2023-05-17T12:45:35.836Z,38.94
2023-05-17T12:46:35.880Z,38.93
2023-05-17T12:47:35.922Z,38.97
2023-05-17T12:48:36.033Z,39.01
2023-05-17T12:49:35.980Z,38.97
2023-05-17T12:50:36.029Z,38.96
2023-05-17T12:51:36.102Z,38.98
2023-05-17T12:52:36.102Z,39.05
2023-05-17T12:53:36.404Z,38.96
2023-05-17T12:54:36.192Z,39.01